createdAt,value
2018-01-16T00:00:43.739Z,16.80
2018-01-16T00:01:48.486Z,16.80
2018-01-16T00:02:53.348Z,16.80
2018-01-16T00:03:58.343Z,16.70
2018-01-16T00:05:03.137Z,16.70
2018-01-16T00:06:08.158Z,16.70
2018-01-16T00:07:14.374Z,16.70
2018-01-16T00:08:19.878Z,16.70
2018-01-16T00:09:26.226Z,16.70
2018-01-16T00:10:31.681Z,16.70
2018-01-16T00:11:37.703Z,16.80
2018-01-16T00:12:59.276Z,16.70
2018-01-16T00:14:04.063Z,16.70
2018-01-16T00:15:08.985Z,16.70
2018-01-16T00:16:13.823Z,16.70
2018-01-16T00:17:18.508Z,16.70
2018-01-16T00:18:23.348Z,16.70
2018-01-16T00:19:28.211Z,16.70
2018-01-16T00:20:33.037Z,16.70
2018-01-16T00:21:37.893Z,16.70
2018-01-16T00:22:42.741Z,16.70
2018-01-16T00:23:47.591Z,16.60
2018-01-16T00:24:52.592Z,16.60
2018-01-16T00:25:58.766Z,16.60
2018-01-16T00:27:03.818Z,16.60
2018-01-16T00:28:08.596Z,16.60
2018-01-16T00:29:13.513Z,16.60
2018-01-16T00:30:18.263Z,16.60
2018-01-16T00:31:23.175Z,16.60
2018-01-16T00:32:27.924Z,16.60
2018-01-16T00:33:32.827Z,16.60
2018-01-16T00:34:37.582Z,16.60
2018-01-16T00:35:42.376Z,16.60
2018-01-16T00:36:47.176Z,16.60
2018-01-16T00:37:51.865Z,16.60
2018-01-16T00:38:56.626Z,16.60
2018-01-16T00:40:01.622Z,16.60
2018-01-16T00:41:06.527Z,16.60
2018-01-16T00:42:11.234Z,16.50
2018-01-16T00:43:16.129Z,16.50
2018-01-16T00:44:22.383Z,16.50
2018-01-16T00:45:27.382Z,16.50
2018-01-16T00:46:32.256Z,16.50
2018-01-16T00:47:37.177Z,16.50
2018-01-16T00:48:42.179Z,16.50
2018-01-16T00:49:47.086Z,16.50
2018-01-16T00:50:51.927Z,16.60
2018-01-16T00:51:56.660Z,16.50
2018-01-16T00:53:01.546Z,16.50
2018-01-16T00:54:06.474Z,16.50
2018-01-16T00:55:11.158Z,16.50
2018-01-16T00:56:15.901Z,16.50
2018-01-16T00:57:20.788Z,16.50
2018-01-16T00:58:25.687Z,16.50
2018-01-16T00:59:30.404Z,16.50
2018-01-16T01:00:35.115Z,16.50
2018-01-16T01:01:40.023Z,16.50
2018-01-16T01:02:45.001Z,16.50
2018-01-16T01:03:49.904Z,16.50
2018-01-16T01:04:54.908Z,16.50
2018-01-16T01:05:59.693Z,16.50
2018-01-16T01:07:04.593Z,16.50
2018-01-16T01:08:09.363Z,16.50
2018-01-16T01:09:14.325Z,16.50
2018-01-16T01:10:19.049Z,16.50
2018-01-16T01:11:24.169Z,16.50
2018-01-16T01:12:28.914Z,16.50
2018-01-16T01:13:33.736Z,16.50
2018-01-16T01:14:38.677Z,16.50
2018-01-16T01:15:43.505Z,16.50
2018-01-16T01:16:48.254Z,16.50
2018-01-16T01:17:53.005Z,16.50
2018-01-16T01:18:57.864Z,16.50
2018-01-16T01:20:02.922Z,16.50
2018-01-16T01:21:08.633Z,16.50
2018-01-16T01:22:13.546Z,16.50
2018-01-16T01:23:18.449Z,16.50
2018-01-16T01:24:23.265Z,16.50
2018-01-16T01:25:28.053Z,16.50
2018-01-16T01:26:33.022Z,16.40
2018-01-16T01:27:37.805Z,16.40
2018-01-16T01:28:42.578Z,16.40
2018-01-16T01:29:47.365Z,16.40
2018-01-16T01:30:52.183Z,16.40
2018-01-16T01:31:56.970Z,16.40
2018-01-16T01:33:01.832Z,16.40
2018-01-16T01:34:06.808Z,16.40
2018-01-16T01:35:11.740Z,16.40
2018-01-16T01:36:16.572Z,16.40
2018-01-16T01:37:21.404Z,16.40
2018-01-16T01:38:26.656Z,16.40
2018-01-16T01:39:32.337Z,16.40
2018-01-16T01:40:37.371Z,16.40
2018-01-16T01:41:42.158Z,16.40
2018-01-16T01:42:47.046Z,16.40
2018-01-16T01:43:51.928Z,16.40
2018-01-16T01:44:56.868Z,16.40
2018-01-16T01:46:01.577Z,16.40
2018-01-16T01:47:06.490Z,16.40
2018-01-16T01:48:11.353Z,16.40
2018-01-16T01:49:16.250Z,16.40
2018-01-16T01:50:21.035Z,16.40
2018-01-16T01:51:25.894Z,16.30
2018-01-16T01:52:30.667Z,16.40
2018-01-16T01:53:35.385Z,16.40
2018-01-16T01:54:40.199Z,16.40
2018-01-16T01:55:45.122Z,16.40
2018-01-16T01:56:49.834Z,16.40
2018-01-16T01:57:54.576Z,16.40
2018-01-16T01:58:59.479Z,16.40
2018-01-16T02:00:04.386Z,16.30
2018-01-16T02:01:09.378Z,16.30
2018-01-16T02:02:14.140Z,16.30
2018-01-16T02:03:19.125Z,16.30
2018-01-16T02:04:23.979Z,16.30
2018-01-16T02:05:28.870Z,16.30
2018-01-16T02:06:33.666Z,16.30
2018-01-16T02:07:38.424Z,16.30
2018-01-16T02:08:43.212Z,16.30
2018-01-16T02:09:48.104Z,16.30
2018-01-16T02:10:52.845Z,16.30
2018-01-16T02:11:57.612Z,16.30
2018-01-16T02:13:02.418Z,16.30
2018-01-16T02:14:07.236Z,16.30
2018-01-16T02:15:11.966Z,16.30
2018-01-16T02:16:16.826Z,16.30
2018-01-16T02:17:21.580Z,16.30
2018-01-16T02:18:26.361Z,16.30
2018-01-16T02:19:31.247Z,16.30
2018-01-16T02:20:36.043Z,16.30
2018-01-16T02:21:41.011Z,16.30
2018-01-16T02:22:45.902Z,16.30
2018-01-16T02:23:50.820Z,16.30
2018-01-16T02:24:55.690Z,16.30
2018-01-16T02:26:00.501Z,16.30
2018-01-16T02:27:05.208Z,16.30
2018-01-16T02:28:10.062Z,16.30
2018-01-16T02:29:14.781Z,16.30
2018-01-16T02:30:19.911Z,16.30
2018-01-16T02:31:24.683Z,16.30
2018-01-16T02:32:29.539Z,16.30
2018-01-16T02:33:34.451Z,16.30
2018-01-16T02:34:39.276Z,16.30
2018-01-16T02:35:44.021Z,16.30
2018-01-16T02:36:48.827Z,16.30
2018-01-16T02:37:53.538Z,16.30
2018-01-16T02:38:58.291Z,16.30
2018-01-16T02:40:03.117Z,16.30
2018-01-16T02:41:07.983Z,16.30
2018-01-16T02:42:12.823Z,16.30
2018-01-16T02:43:17.692Z,16.30
2018-01-16T02:44:22.540Z,16.30
2018-01-16T02:45:27.329Z,16.30
2018-01-16T02:46:32.197Z,16.30
2018-01-16T02:47:37.287Z,16.30
2018-01-16T02:48:42.034Z,16.30
2018-01-16T02:49:46.961Z,16.30
2018-01-16T02:50:51.941Z,16.30
2018-01-16T02:51:56.677Z,16.30
2018-01-16T02:53:01.490Z,16.30
2018-01-16T02:54:06.268Z,16.20
2018-01-16T02:55:10.966Z,16.20
2018-01-16T02:56:16.131Z,16.30
2018-01-16T02:57:20.975Z,16.20
2018-01-16T02:58:25.783Z,16.20
2018-01-16T02:59:30.657Z,16.20
2018-01-16T03:00:35.404Z,16.20
2018-01-16T03:01:40.134Z,16.20
2018-01-16T03:02:45.045Z,16.20
2018-01-16T03:03:49.797Z,16.20
2018-01-16T03:04:54.683Z,16.20
2018-01-16T03:05:59.441Z,16.30
2018-01-16T03:07:04.411Z,16.30
2018-01-16T03:08:09.223Z,16.20
2018-01-16T03:09:13.963Z,16.20
2018-01-16T03:10:18.840Z,16.20
2018-01-16T03:11:23.681Z,16.20
2018-01-16T03:12:28.537Z,16.20
2018-01-16T03:13:33.409Z,16.20
2018-01-16T03:14:39.220Z,16.20
2018-01-16T03:15:44.253Z,16.20
2018-01-16T03:16:49.259Z,16.20
2018-01-16T03:17:54.064Z,16.20
2018-01-16T03:18:58.811Z,16.20
2018-01-16T03:20:03.661Z,16.20
2018-01-16T03:21:08.486Z,16.20
2018-01-16T03:22:13.228Z,16.20
2018-01-16T03:23:18.297Z,16.20
2018-01-16T03:24:23.204Z,16.20
2018-01-16T03:25:27.950Z,16.20
2018-01-16T03:26:32.826Z,16.20
2018-01-16T03:27:37.772Z,16.20
2018-01-16T03:28:42.637Z,16.20
2018-01-16T03:29:47.492Z,16.20
2018-01-16T03:30:52.412Z,16.20
2018-01-16T03:31:57.573Z,16.20
2018-01-16T03:33:02.677Z,16.20
2018-01-16T03:34:07.548Z,16.20
2018-01-16T03:35:12.271Z,16.20
2018-01-16T03:36:17.142Z,16.20
2018-01-16T03:37:22.003Z,16.20
2018-01-16T03:38:26.739Z,16.20
2018-01-16T03:39:31.652Z,16.20
2018-01-16T03:40:36.412Z,16.20
2018-01-16T03:41:41.285Z,16.20
2018-01-16T03:42:45.984Z,16.20
2018-01-16T03:43:50.926Z,16.20
2018-01-16T03:44:55.735Z,16.20
2018-01-16T03:46:00.617Z,16.20
2018-01-16T03:47:05.468Z,16.20
2018-01-16T03:48:10.372Z,16.20
2018-01-16T03:49:15.219Z,16.20
2018-01-16T03:50:20.174Z,16.20
2018-01-16T03:51:26.118Z,16.20
2018-01-16T03:52:30.892Z,16.20
2018-01-16T03:53:35.881Z,16.20
2018-01-16T03:54:40.663Z,16.20
2018-01-16T03:55:45.420Z,16.20
2018-01-16T03:56:50.423Z,16.20
2018-01-16T03:57:55.399Z,16.20
2018-01-16T03:59:00.238Z,16.20
2018-01-16T04:00:41.204Z,16.20
2018-01-16T04:01:35.096Z,16.20
2018-01-16T04:02:39.939Z,16.10
2018-01-16T04:03:54.748Z,16.10
2018-01-16T04:05:33.512Z,16.10
2018-01-16T04:06:39.500Z,16.20
2018-01-16T04:07:44.221Z,16.20
2018-01-16T04:08:48.960Z,16.20
2018-01-16T04:09:53.990Z,16.20
2018-01-16T04:10:58.888Z,16.20
2018-01-16T04:12:03.982Z,16.20
2018-01-16T04:13:08.684Z,16.20
2018-01-16T04:14:13.380Z,16.20
2018-01-16T04:15:18.282Z,16.20
2018-01-16T04:16:23.831Z,16.20
2018-01-16T04:17:28.663Z,16.10
2018-01-16T04:18:33.437Z,16.10
2018-01-16T04:19:38.286Z,16.10
2018-01-16T04:20:43.195Z,16.10
2018-01-16T04:21:48.075Z,16.10
2018-01-16T04:22:53.005Z,16.10
2018-01-16T04:23:58.552Z,16.10
2018-01-16T04:25:03.441Z,16.10
2018-01-16T04:26:08.451Z,16.10
2018-01-16T04:27:13.184Z,16.10
2018-01-16T04:28:18.024Z,16.10
2018-01-16T04:29:22.997Z,16.10
2018-01-16T04:30:27.900Z,16.10
2018-01-16T04:31:32.813Z,16.10
2018-01-16T04:32:37.951Z,16.10
2018-01-16T04:33:42.713Z,16.10
2018-01-16T04:34:47.617Z,16.10
2018-01-16T04:35:52.349Z,16.10
2018-01-16T04:36:57.094Z,16.10
2018-01-16T04:38:02.056Z,16.10
2018-01-16T04:39:07.078Z,16.10
2018-01-16T04:40:11.879Z,16.10
2018-01-16T04:41:16.698Z,16.10
2018-01-16T04:42:21.692Z,16.10
2018-01-16T04:43:26.419Z,16.10
2018-01-16T04:44:31.179Z,16.10
2018-01-16T04:45:36.151Z,16.10
2018-01-16T04:46:41.393Z,16.10
2018-01-16T04:47:46.309Z,16.10
2018-01-16T04:48:51.093Z,16.10
2018-01-16T04:49:56.040Z,16.10
2018-01-16T04:51:00.856Z,16.10
2018-01-16T04:52:05.636Z,16.10
2018-01-16T04:53:10.703Z,16.10
2018-01-16T04:54:15.644Z,16.10
2018-01-16T04:55:20.420Z,16.10
2018-01-16T04:56:25.283Z,16.10
2018-01-16T04:57:30.216Z,16.10
2018-01-16T04:58:35.124Z,16.10
2018-01-16T04:59:40.048Z,16.10
2018-01-16T05:00:44.953Z,16.10
2018-01-16T05:01:49.978Z,16.10
2018-01-16T05:02:54.763Z,16.10
2018-01-16T05:03:59.732Z,16.10
2018-01-16T05:05:04.870Z,16.10
2018-01-16T05:06:09.693Z,16.10
2018-01-16T05:07:14.610Z,16.10
2018-01-16T05:08:19.352Z,16.10
2018-01-16T05:09:24.220Z,16.10
2018-01-16T05:10:29.241Z,16.10
2018-01-16T05:11:34.122Z,16.10
2018-01-16T05:12:39.006Z,16.10
2018-01-16T05:13:43.810Z,16.10
2018-01-16T05:14:48.620Z,16.10
2018-01-16T05:15:53.315Z,16.10
2018-01-16T05:16:58.175Z,16.10
2018-01-16T05:18:02.929Z,16.10
2018-01-16T05:19:07.692Z,16.10
2018-01-16T05:20:12.453Z,16.10
2018-01-16T05:21:17.240Z,16.10
2018-01-16T05:22:22.134Z,16.10
2018-01-16T05:23:27.451Z,16.10
2018-01-16T05:24:32.269Z,16.10
2018-01-16T05:25:37.105Z,16.10
2018-01-16T05:26:41.868Z,16.10
2018-01-16T05:27:47.041Z,16.10
2018-01-16T05:28:51.827Z,16.10
2018-01-16T05:29:56.713Z,16.10
2018-01-16T05:31:01.771Z,16.10
2018-01-16T05:32:06.700Z,16.10
2018-01-16T05:33:11.627Z,16.10
2018-01-16T05:34:16.536Z,16.10
2018-01-16T05:35:21.482Z,16.00
2018-01-16T05:36:26.364Z,16.10
2018-01-16T05:37:31.286Z,16.10
2018-01-16T05:38:36.103Z,16.10
2018-01-16T05:39:41.015Z,16.10
2018-01-16T05:40:47.497Z,16.00
2018-01-16T05:41:52.934Z,16.10
2018-01-16T05:42:57.813Z,16.10
2018-01-16T05:44:02.767Z,16.10
2018-01-16T05:45:07.645Z,16.10
2018-01-16T05:46:12.644Z,16.10
2018-01-16T05:47:17.443Z,16.10
2018-01-16T05:48:23.820Z,16.10
2018-01-16T05:49:28.799Z,16.10
2018-01-16T05:50:33.600Z,16.10
2018-01-16T05:51:38.458Z,16.10
2018-01-16T05:52:46.198Z,16.10
2018-01-16T05:53:51.001Z,16.10
2018-01-16T05:54:55.890Z,16.10
2018-01-16T05:56:00.642Z,16.00
2018-01-16T05:57:05.585Z,16.00
2018-01-16T05:58:10.937Z,16.00
2018-01-16T05:59:15.888Z,16.00
2018-01-16T06:00:20.697Z,16.00
2018-01-16T06:01:25.499Z,16.00
2018-01-16T06:02:30.252Z,16.00
2018-01-16T06:03:35.093Z,16.00
2018-01-16T06:04:39.864Z,16.00
2018-01-16T06:05:44.624Z,16.00
2018-01-16T06:06:49.524Z,15.90
2018-01-16T06:07:54.516Z,15.80
2018-01-16T06:08:59.309Z,15.70
2018-01-16T06:10:04.289Z,15.50
2018-01-16T06:11:09.176Z,15.40
2018-01-16T06:12:14.094Z,15.40
2018-01-16T06:13:19.020Z,15.30
2018-01-16T06:14:24.010Z,15.30
2018-01-16T06:15:28.993Z,15.40
2018-01-16T06:16:33.931Z,15.40
2018-01-16T06:17:38.737Z,15.60
2018-01-16T06:18:43.698Z,15.70
2018-01-16T06:19:48.660Z,15.80
2018-01-16T06:20:53.441Z,15.90
2018-01-16T06:21:58.225Z,16.00
2018-01-16T06:23:03.161Z,16.10
2018-01-16T06:24:08.128Z,16.20
2018-01-16T06:25:12.948Z,16.40
2018-01-16T06:26:17.779Z,16.50
2018-01-16T06:27:23.049Z,16.60
2018-01-16T06:28:28.427Z,16.70
2018-01-16T06:29:34.082Z,16.80
2018-01-16T06:30:38.858Z,16.90
2018-01-16T06:31:43.718Z,17.00
2018-01-16T06:32:48.755Z,17.10
2018-01-16T06:33:53.630Z,17.20
2018-01-16T06:34:58.624Z,17.30
2018-01-16T06:36:03.554Z,17.30
2018-01-16T06:37:08.657Z,17.40
2018-01-16T06:38:13.633Z,17.50
2018-01-16T06:39:18.747Z,17.60
2018-01-16T06:40:23.458Z,17.60
2018-01-16T06:41:28.211Z,17.70
2018-01-16T06:42:33.392Z,17.70
2018-01-16T06:43:38.537Z,17.70
2018-01-16T06:44:44.462Z,17.70
2018-01-16T06:45:50.051Z,17.70
2018-01-16T06:46:55.211Z,17.70
2018-01-16T06:48:00.140Z,17.70
2018-01-16T06:49:05.019Z,17.80
2018-01-16T06:50:09.950Z,17.90
2018-01-16T06:51:14.683Z,17.90
2018-01-16T06:52:20.409Z,18.00
2018-01-16T06:53:25.504Z,18.00
2018-01-16T06:54:30.420Z,18.10
2018-01-16T06:55:35.248Z,18.20
2018-01-16T06:56:40.304Z,18.20
2018-01-16T06:57:45.093Z,18.20
2018-01-16T06:58:49.997Z,18.10
2018-01-16T06:59:55.059Z,18.10
2018-01-16T07:01:00.025Z,18.10
2018-01-16T07:02:04.775Z,18.00
2018-01-16T07:03:09.577Z,18.00
2018-01-16T07:04:14.402Z,18.00
2018-01-16T07:05:19.331Z,17.90
2018-01-16T07:06:24.246Z,17.90
2018-01-16T07:07:29.166Z,17.90
2018-01-16T07:08:34.254Z,17.90
2018-01-16T07:09:39.508Z,17.90
2018-01-16T07:11:03.598Z,17.90
2018-01-16T07:12:08.491Z,17.90
2018-01-16T07:13:13.621Z,17.80
2018-01-16T07:14:18.921Z,17.80
2018-01-16T07:15:24.633Z,17.80
2018-01-16T07:16:30.522Z,17.80
2018-01-16T07:17:35.412Z,17.80
2018-01-16T07:18:40.217Z,17.80
2018-01-16T07:19:45.014Z,17.80
2018-01-16T07:20:49.837Z,17.80
2018-01-16T07:21:55.281Z,17.80
2018-01-16T07:23:00.756Z,17.80
2018-01-16T07:24:05.893Z,17.80
2018-01-16T07:25:10.809Z,17.80
2018-01-16T07:26:17.087Z,17.80
2018-01-16T07:27:21.808Z,17.80
2018-01-16T07:28:26.526Z,17.80
2018-01-16T07:29:31.428Z,17.80
2018-01-16T07:30:36.351Z,17.80
2018-01-16T07:31:41.619Z,17.90
2018-01-16T07:32:46.351Z,17.80
2018-01-16T07:33:52.968Z,17.80
2018-01-16T07:34:58.510Z,17.80
2018-01-16T07:36:03.472Z,17.80
2018-01-16T07:37:08.507Z,17.80
2018-01-16T07:38:16.541Z,17.80
2018-01-16T07:39:21.294Z,17.80
2018-01-16T07:40:26.014Z,17.80
2018-01-16T07:41:30.905Z,17.80
2018-01-16T07:42:35.617Z,17.80
2018-01-16T07:43:40.362Z,17.80
2018-01-16T07:44:45.261Z,17.80
2018-01-16T07:45:50.123Z,17.80
2018-01-16T07:46:55.071Z,17.80
2018-01-16T07:47:59.917Z,17.80
2018-01-16T07:49:04.746Z,17.80
2018-01-16T07:50:09.491Z,17.80
2018-01-16T07:51:14.358Z,17.80
2018-01-16T07:52:19.273Z,17.80
2018-01-16T07:53:24.058Z,17.80
2018-01-16T07:54:28.914Z,17.80
2018-01-16T07:55:33.667Z,17.90
2018-01-16T07:56:38.359Z,17.90
2018-01-16T07:57:43.173Z,17.90
2018-01-16T07:58:47.884Z,17.90
2018-01-16T07:59:52.774Z,18.00
2018-01-16T08:00:57.725Z,18.00
2018-01-16T08:02:02.743Z,18.00
2018-01-16T08:03:07.633Z,17.90
2018-01-16T08:04:12.500Z,17.90
2018-01-16T08:05:17.276Z,17.90
2018-01-16T08:06:22.123Z,17.90
2018-01-16T08:07:26.971Z,17.90
2018-01-16T08:08:31.787Z,17.90
2018-01-16T08:09:36.929Z,17.90
2018-01-16T08:10:41.769Z,17.90
2018-01-16T08:11:46.777Z,17.90
2018-01-16T08:12:51.652Z,17.90
2018-01-16T08:13:56.353Z,17.90
2018-01-16T08:15:01.258Z,17.80
2018-01-16T08:16:06.041Z,17.80
2018-01-16T08:17:10.792Z,17.80
2018-01-16T08:18:15.770Z,17.80
2018-01-16T08:19:20.599Z,17.80
2018-01-16T08:20:25.301Z,17.80
2018-01-16T08:21:30.009Z,17.80
2018-01-16T08:22:34.786Z,17.80
2018-01-16T08:23:39.770Z,17.70
2018-01-16T08:24:44.609Z,17.70
2018-01-16T08:25:49.384Z,17.70
2018-01-16T08:26:54.189Z,17.70
2018-01-16T08:27:59.084Z,17.70
2018-01-16T08:29:04.044Z,17.60
2018-01-16T08:30:08.831Z,17.70
2018-01-16T08:31:13.773Z,17.60
2018-01-16T08:32:18.478Z,17.60
2018-01-16T08:33:23.394Z,17.60
2018-01-16T08:34:28.245Z,17.60
2018-01-16T08:35:32.984Z,17.60
2018-01-16T08:36:37.838Z,17.60
2018-01-16T08:37:42.811Z,17.60
2018-01-16T08:38:47.567Z,17.50
2018-01-16T08:39:52.523Z,17.50
2018-01-16T08:40:57.318Z,17.50
2018-01-16T08:42:02.153Z,17.50
2018-01-16T08:43:06.868Z,17.50
2018-01-16T08:44:11.615Z,17.50
2018-01-16T08:45:16.348Z,17.50
2018-01-16T08:46:21.274Z,17.50
2018-01-16T08:47:26.015Z,17.50
2018-01-16T08:48:30.941Z,17.50
2018-01-16T08:49:35.918Z,17.40
2018-01-16T08:50:40.665Z,17.40
2018-01-16T08:51:45.717Z,17.40
2018-01-16T08:52:50.689Z,17.40
2018-01-16T08:53:55.668Z,17.40
2018-01-16T08:55:01.524Z,17.40
2018-01-16T08:56:06.809Z,17.40
2018-01-16T08:57:11.572Z,17.30
2018-01-16T08:58:16.442Z,17.30
2018-01-16T08:59:21.337Z,17.30
2018-01-16T09:00:26.090Z,17.30
2018-01-16T09:01:31.108Z,17.30
2018-01-16T09:02:36.020Z,17.30
2018-01-16T09:03:40.817Z,17.30
2018-01-16T09:04:45.647Z,17.30
2018-01-16T09:05:50.699Z,17.30
2018-01-16T09:06:55.602Z,17.20
2018-01-16T09:08:00.597Z,17.20
2018-01-16T09:09:05.392Z,17.20
2018-01-16T09:10:10.228Z,17.20
2018-01-16T09:11:15.215Z,17.10
2018-01-16T09:12:19.955Z,17.10
2018-01-16T09:13:26.023Z,17.10
2018-01-16T09:14:31.123Z,17.10
2018-01-16T09:15:36.042Z,17.10
2018-01-16T09:16:40.888Z,17.10
2018-01-16T09:17:45.785Z,17.00
2018-01-16T09:18:50.673Z,17.00
2018-01-16T09:19:55.524Z,17.00
2018-01-16T09:21:00.302Z,17.00
2018-01-16T09:22:05.301Z,17.00
2018-01-16T09:23:10.160Z,17.00
2018-01-16T09:24:14.992Z,17.00
2018-01-16T09:25:19.788Z,17.00
2018-01-16T09:26:24.680Z,17.10
2018-01-16T09:27:29.468Z,17.10
2018-01-16T09:28:34.295Z,17.00
2018-01-16T09:29:39.146Z,17.00
2018-01-16T09:30:46.375Z,17.00
2018-01-16T09:31:51.838Z,17.00
2018-01-16T09:32:56.666Z,17.00
2018-01-16T09:34:02.619Z,17.00
2018-01-16T09:35:07.460Z,17.00
2018-01-16T09:36:12.377Z,17.00
2018-01-16T09:37:17.206Z,17.00
2018-01-16T09:38:22.186Z,17.00
2018-01-16T09:39:27.306Z,17.00
2018-01-16T09:40:32.258Z,17.00
2018-01-16T09:41:37.109Z,17.00
2018-01-16T09:42:42.101Z,17.00
2018-01-16T09:43:49.213Z,17.00
2018-01-16T09:44:53.950Z,17.00
2018-01-16T09:45:58.724Z,17.00
2018-01-16T09:47:03.587Z,17.00
2018-01-16T09:48:08.524Z,17.00
2018-01-16T09:49:13.560Z,17.00
2018-01-16T09:50:18.526Z,17.00
2018-01-16T09:51:23.444Z,17.00
2018-01-16T09:52:28.337Z,17.00
2018-01-16T09:53:33.206Z,17.00
2018-01-16T09:54:37.969Z,17.00
2018-01-16T09:55:42.688Z,17.00
2018-01-16T09:56:47.532Z,17.00
2018-01-16T09:57:52.514Z,17.00
2018-01-16T09:58:57.265Z,17.00
2018-01-16T10:00:02.026Z,17.00
2018-01-16T10:01:06.788Z,17.00
2018-01-16T10:02:11.617Z,17.00
2018-01-16T10:03:16.607Z,17.00
2018-01-16T10:04:21.514Z,17.00
2018-01-16T10:05:26.474Z,17.00
2018-01-16T10:06:31.484Z,16.90
2018-01-16T10:07:36.527Z,16.90
2018-01-16T10:08:41.707Z,16.90
2018-01-16T10:09:46.974Z,16.90
2018-01-16T10:10:52.031Z,16.90
2018-01-16T10:11:56.880Z,16.90
2018-01-16T10:13:01.701Z,16.90
2018-01-16T10:14:06.796Z,16.90
2018-01-16T10:15:11.778Z,16.90
2018-01-16T10:16:16.686Z,16.90
2018-01-16T10:17:21.477Z,16.90
2018-01-16T10:18:26.548Z,16.90
2018-01-16T10:19:31.330Z,16.90
2018-01-16T10:20:36.565Z,17.00
2018-01-16T10:21:41.950Z,16.90
2018-01-16T10:22:46.711Z,16.90
2018-01-16T10:23:51.960Z,16.90
2018-01-16T10:24:56.687Z,17.00
2018-01-16T10:26:01.618Z,17.00
2018-01-16T10:27:06.404Z,17.00
2018-01-16T10:28:11.295Z,17.00
2018-01-16T10:29:16.174Z,17.00
2018-01-16T10:30:21.142Z,17.00
2018-01-16T10:31:25.923Z,16.90
2018-01-16T10:32:30.939Z,17.00
2018-01-16T10:33:35.925Z,16.90
2018-01-16T10:34:40.711Z,16.90
2018-01-16T10:35:45.573Z,16.90
2018-01-16T10:36:50.579Z,16.90
2018-01-16T10:37:55.343Z,16.90
2018-01-16T10:39:00.131Z,16.90
2018-01-16T10:40:04.860Z,16.90
2018-01-16T10:41:09.799Z,16.90
2018-01-16T10:42:14.699Z,16.90
2018-01-16T10:43:19.628Z,16.90
2018-01-16T10:44:24.618Z,16.90
2018-01-16T10:45:29.595Z,16.90
2018-01-16T10:46:34.500Z,16.90
2018-01-16T10:47:39.359Z,16.90
2018-01-16T10:48:44.375Z,16.90
2018-01-16T10:49:49.164Z,16.90
2018-01-16T10:50:53.968Z,16.90
2018-01-16T10:51:58.892Z,16.80
2018-01-16T10:53:03.686Z,16.90
2018-01-16T10:54:08.388Z,17.00
2018-01-16T10:55:13.256Z,17.20
2018-01-16T10:56:18.037Z,17.20
2018-01-16T10:57:22.957Z,17.20
2018-01-16T10:58:28.098Z,17.20
2018-01-16T10:59:33.184Z,17.10
2018-01-16T11:00:38.036Z,17.10
2018-01-16T11:01:42.780Z,17.00
2018-01-16T11:02:47.492Z,17.00
2018-01-16T11:03:52.393Z,17.00
2018-01-16T11:04:57.191Z,16.90
2018-01-16T11:06:02.306Z,16.90
2018-01-16T11:07:07.271Z,16.90
2018-01-16T11:08:12.194Z,16.90
2018-01-16T11:09:16.908Z,16.80
2018-01-16T11:10:21.701Z,16.80
2018-01-16T11:11:26.408Z,16.80
2018-01-16T11:12:31.423Z,16.80
2018-01-16T11:13:36.188Z,16.80
2018-01-16T11:14:41.126Z,16.70
2018-01-16T11:15:46.019Z,16.70
2018-01-16T11:16:50.983Z,16.70
2018-01-16T11:17:55.919Z,16.70
2018-01-16T11:19:00.765Z,16.70
2018-01-16T11:20:05.495Z,16.70
2018-01-16T11:21:10.225Z,16.70
2018-01-16T11:22:15.034Z,16.70
2018-01-16T11:23:19.760Z,16.70
2018-01-16T11:24:24.549Z,16.70
2018-01-16T11:25:29.429Z,16.60
2018-01-16T11:26:34.266Z,16.60
2018-01-16T11:27:39.119Z,16.60
2018-01-16T11:28:43.850Z,16.60
2018-01-16T11:29:48.550Z,16.60
2018-01-16T11:30:53.329Z,16.60
2018-01-16T11:31:58.251Z,16.60
2018-01-16T11:33:03.138Z,16.60
2018-01-16T11:34:08.120Z,16.60
2018-01-16T11:35:12.995Z,16.50
2018-01-16T11:36:17.876Z,16.50
2018-01-16T11:37:22.655Z,16.50
2018-01-16T11:38:27.334Z,16.50
2018-01-16T11:39:32.121Z,16.50
2018-01-16T11:40:36.933Z,16.50
2018-01-16T11:41:41.822Z,16.50
2018-01-16T11:42:46.715Z,16.50
2018-01-16T11:43:51.608Z,16.50
2018-01-16T11:44:56.490Z,16.50
2018-01-16T11:46:01.372Z,16.50
2018-01-16T11:47:06.228Z,16.50
2018-01-16T11:48:11.106Z,16.50
2018-01-16T11:49:15.836Z,16.50
2018-01-16T11:50:20.608Z,16.50
2018-01-16T11:51:25.388Z,16.50
2018-01-16T11:52:30.317Z,16.50
2018-01-16T11:53:35.186Z,16.50
2018-01-16T11:54:40.049Z,16.50
2018-01-16T11:55:44.886Z,16.50
2018-01-16T11:56:49.636Z,16.50
2018-01-16T11:57:54.568Z,16.50
2018-01-16T11:58:59.301Z,16.50
2018-01-16T12:00:04.116Z,16.50
2018-01-16T12:01:09.047Z,16.50
2018-01-16T12:02:13.976Z,16.50
2018-01-16T12:03:18.896Z,16.40
2018-01-16T12:04:23.702Z,16.40
2018-01-16T12:05:28.380Z,16.50
2018-01-16T12:06:33.281Z,16.50
2018-01-16T12:07:38.417Z,16.50
2018-01-16T12:08:43.275Z,16.50
2018-01-16T12:09:48.137Z,16.40
2018-01-16T12:10:53.757Z,16.40
2018-01-16T12:11:58.615Z,16.40
2018-01-16T12:13:03.326Z,16.40
2018-01-16T12:14:08.297Z,16.40
2018-01-16T12:15:13.117Z,16.40
2018-01-16T12:16:18.050Z,16.40
2018-01-16T12:17:23.147Z,16.40
2018-01-16T12:18:28.281Z,16.40
2018-01-16T12:19:32.970Z,16.40
2018-01-16T12:20:37.783Z,16.40
2018-01-16T12:21:42.625Z,16.40
2018-01-16T12:22:47.357Z,16.40
2018-01-16T12:23:52.060Z,16.40
2018-01-16T12:24:56.814Z,16.40
2018-01-16T12:26:01.626Z,16.40
2018-01-16T12:27:06.404Z,16.40
2018-01-16T12:28:11.105Z,16.40
2018-01-16T12:29:16.145Z,16.40
2018-01-16T12:30:20.853Z,16.40
2018-01-16T12:31:25.609Z,16.30
2018-01-16T12:32:30.501Z,16.30
2018-01-16T12:33:35.380Z,16.40
2018-01-16T12:34:40.216Z,16.30
2018-01-16T12:35:45.076Z,16.30
2018-01-16T12:36:49.871Z,16.30
2018-01-16T12:37:54.740Z,16.30
2018-01-16T12:38:59.970Z,16.30
2018-01-16T12:40:04.843Z,16.30
2018-01-16T12:41:09.615Z,16.30
2018-01-16T12:42:14.287Z,16.30
2018-01-16T12:43:19.124Z,16.30
2018-01-16T12:44:23.842Z,16.30
2018-01-16T12:45:28.696Z,16.30
2018-01-16T12:46:33.431Z,16.40
2018-01-16T12:47:38.258Z,16.40
2018-01-16T12:48:43.006Z,16.40
2018-01-16T12:49:47.802Z,16.50
2018-01-16T12:50:52.540Z,16.50
2018-01-16T12:51:57.436Z,16.60
2018-01-16T12:53:02.272Z,16.60
2018-01-16T12:54:07.259Z,16.70
2018-01-16T12:55:12.169Z,16.70
2018-01-16T12:56:17.058Z,16.90
2018-01-16T12:57:21.846Z,16.90
2018-01-16T12:58:26.750Z,17.10
2018-01-16T12:59:31.741Z,17.20
2018-01-16T13:00:36.514Z,17.20
2018-01-16T13:01:41.209Z,17.30
2018-01-16T13:02:46.031Z,17.40
2018-01-16T13:03:50.819Z,17.50
2018-01-16T13:04:55.567Z,17.50
2018-01-16T13:06:00.317Z,17.60
2018-01-16T13:07:05.081Z,17.70
2018-01-16T13:08:09.884Z,17.80
2018-01-16T13:09:14.834Z,17.90
2018-01-16T13:10:19.683Z,18.00
2018-01-16T13:11:24.676Z,18.10
2018-01-16T13:12:29.550Z,18.20
2018-01-16T13:13:34.415Z,18.20
2018-01-16T13:16:45.233Z,18.30
2018-01-16T13:17:50.180Z,18.30
2018-01-16T13:18:55.087Z,18.30
2018-01-16T13:20:00.105Z,18.30
2018-01-16T13:21:04.883Z,18.30
2018-01-16T13:22:09.615Z,18.30
2018-01-16T13:23:14.363Z,18.30
2018-01-16T13:24:19.270Z,18.30
2018-01-16T13:25:24.142Z,18.30
2018-01-16T13:26:29.015Z,18.30
2018-01-16T13:27:33.854Z,18.30
2018-01-16T13:28:38.621Z,18.30
2018-01-16T13:29:43.367Z,18.30
2018-01-16T13:30:48.085Z,18.30
2018-01-16T13:31:52.970Z,18.30
2018-01-16T13:32:57.683Z,18.30
2018-01-16T13:34:02.655Z,18.30
2018-01-16T13:35:07.593Z,18.30
2018-01-16T13:36:12.468Z,18.20
2018-01-16T13:37:17.378Z,18.20
2018-01-16T13:38:22.213Z,18.20
2018-01-16T13:39:27.095Z,18.20
2018-01-16T13:40:31.833Z,18.10
2018-01-16T13:41:36.731Z,18.10
2018-01-16T13:42:41.482Z,18.10
2018-01-16T13:43:46.233Z,18.10
2018-01-16T13:44:51.013Z,18.10
2018-01-16T13:45:55.906Z,18.10
2018-01-16T13:47:00.805Z,18.10
2018-01-16T13:48:05.553Z,18.00
2018-01-16T13:49:10.466Z,18.00
2018-01-16T13:50:15.231Z,18.00
2018-01-16T13:51:20.004Z,18.00
2018-01-16T13:52:24.858Z,17.90
2018-01-16T13:53:29.731Z,17.90
2018-01-16T13:54:34.635Z,17.80
2018-01-16T13:55:39.356Z,17.80
2018-01-16T13:56:44.115Z,17.80
2018-01-16T13:57:49.147Z,17.70
2018-01-16T13:58:53.983Z,17.70
2018-01-16T13:59:58.901Z,17.60